Pembroke Lakes, Florida
Current Conditions -  °F | °C
As of 11:31 AM on Wednesday 26 Nov 2014 (Local Time) from KHWO Reporting Station
Overcast Overcast  
Wind Chill: 71°   Ceiling: 2000
Heat Index: 71°   Visibility: 10mi
Dew Point: 66°   Wind: 18mph
Humidity: 84%   Direction: 330°NNW
Pressure: 30.09"   Gusts: 22mph
Location:  26.026°N, 80.2963°W
Report Text: KHWO 261631Z 33016G19KT 10SM SCT010 OVC020 22/19 A3009 RMK AO2 T02170189
Loading
Personal Weather Stations






























Interactive Weather Map New forecast layout! Learn more

10-Day Weather Forecast

Advertisements
Track Severe Weather on mobile